^^
Station Historical Data
Daily Summary for January 15, 2018 Units:  Both    English   Metric
« Previous Day
Next Day »
Daily Weekly Monthly Yearly Custom
  High: Low: Average:
Temperature: TemperatureF °F /  -17.8 °C 68.7 °F /  20.4 °C 80.4 °F /  26.9 °C
Dew Point: DewpointF °F /  -17.8 °C 43.2 °F /  6.2 °C 45.5 °F /  7.5 °C
Humidity: Humidity% 24% 29%
Wind Speed: WindSpeedMPHmph /  0km/h - -5mph /  -8km/h
Wind Gust: WindSpeedGustMPHmph /  0km/h - -
Wind- - ENE
Pressure: PressureIn in /  0 hPa 29.54 in /  1000.2 hPa -
Precipitation: 0.00 in /  0 mm    
Historical Graphs
 
 
Tabular Data for January 15, 2018
Time Temperature Dew Point Pressure Wind Wind Speed Wind Gust Humidity Rainfall Rate (Hourly) solar Conditions
TemperatureF °F /  -17.8 °C DewpointF °F /  -17.8 °C PressureInin /  0hPa Calm     Humidity% HourlyPrecipInin /  0mm SoftwareType W/m2 Conditions
09:00 68.7 °F /  20.4 °C 47.7 °F /  8.7 °C 29.62in /  1002.9hPa ESE 11.0mph /  17.7km/h 15.0mph /  24.1km/h 47% 0.00in /  0mm meteobridge W/m2
09:06 68.9 °F /  20.5 °C 47.8 °F /  8.8 °C 29.62in /  1002.9hPa SSE 0.9mph /  1.4km/h 15.0mph /  24.1km/h 47% 0.00in /  0mm meteobridge W/m2
09:12 70.2 °F /  21.2 °C 48.4 °F /  9.1 °C 29.62in /  1002.9hPa Calm   9.0mph /  14.5km/h 46% 0.00in /  0mm meteobridge W/m2
09:18 71.1 °F /  21.7 °C 48.0 °F /  8.9 °C 29.62in /  1002.9hPa East 4.9mph /  7.9km/h 5.0mph /  8km/h 44% 0.00in /  0mm meteobridge W/m2
09:24 71.4 °F /  21.9 °C 47.8 °F /  8.8 °C 29.62in /  1002.9hPa NE 15.0mph /  24.1km/h 16.0mph /  25.7km/h 43% 0.00in /  0mm meteobridge W/m2
09:37 73.0 °F /  22.8 °C 47.3 °F /  8.5 °C 29.62in /  1002.9hPa SSE 6.0mph /  9.7km/h 14.0mph /  22.5km/h 40% 0.00in /  0mm meteobridge W/m2
09:43 72.9 °F /  22.7 °C 45.7 °F /  7.6 °C 29.63in /  1003.3hPa NNW 0.9mph /  1.4km/h 11.0mph /  17.7km/h 38% 0.00in /  0mm meteobridge W/m2
09:49 72.7 °F /  22.6 °C 45.7 °F /  7.6 °C 29.63in /  1003.3hPa NNE 2.9mph /  4.7km/h 6.0mph /  9.7km/h 38% 0.00in /  0mm meteobridge W/m2
09:55 73.8 °F /  23.2 °C 45.1 °F /  7.3 °C 29.64in /  1003.6hPa ESE 6.0mph /  9.7km/h 17.0mph /  27.4km/h 36% 0.00in /  0mm meteobridge W/m2
10:03 73.0 °F /  22.8 °C 43.7 °F /  6.5 °C 29.64in /  1003.6hPa SSE 15.0mph /  24.1km/h 15.0mph /  24.1km/h 35% 0.00in /  0mm meteobridge W/m2
10:23 73.8 °F /  23.2 °C 43.7 °F /  6.5 °C 29.64in /  1003.6hPa North 12.1mph /  19.5km/h 15.0mph /  24.1km/h 34% 0.00in /  0mm meteobridge W/m2
10:31 74.1 °F /  23.4 °C 43.9 °F /  6.6 °C 29.63in /  1003.3hPa WNW 4.0mph /  6.4km/h 17.0mph /  27.4km/h 34% 0.00in /  0mm meteobridge W/m2
10:39 76.1 °F /  24.5 °C 45.0 °F /  7.2 °C 29.64in /  1003.6hPa NNW 4.0mph /  6.4km/h 8.0mph /  12.9km/h 33% 0.00in /  0mm meteobridge W/m2
10:45 77.4 °F /  25.2 °C 45.1 °F /  7.3 °C 29.64in /  1003.6hPa SSE 6.9mph /  11.1km/h 17.0mph /  27.4km/h 32% 0.00in /  0mm meteobridge W/m2
10:51 77.5 °F /  25.3 °C 44.6 °F /  7 °C 29.64in /  1003.6hPa North 17.9mph /  28.8km/h 21.0mph /  33.8km/h 31% 0.00in /  0mm meteobridge W/m2
10:57 76.3 °F /  24.6 °C 44.2 °F /  6.8 °C 29.65in /  1003.9hPa Calm   27.0mph /  43.5km/h 32% 0.00in /  0mm meteobridge W/m2
11:03 76.5 °F /  24.7 °C 44.4 °F /  6.9 °C 29.64in /  1003.6hPa NE 2.0mph /  3.2km/h 13.0mph /  20.9km/h 32% 0.00in /  0mm meteobridge W/m2
11:09 76.8 °F /  24.9 °C 43.9 °F /  6.6 °C 29.65in /  1003.9hPa North 4.9mph /  7.9km/h 21.0mph /  33.8km/h 31% 0.00in /  0mm meteobridge W/m2
11:15 77.0 °F /  25 °C 43.2 °F /  6.2 °C 29.65in /  1003.9hPa NW 2.0mph /  3.2km/h 16.0mph /  25.7km/h 30% 0.00in /  0mm meteobridge W/m2
11:21 77.5 °F /  25.3 °C 43.7 °F /  6.5 °C 29.65in /  1003.9hPa NNW 8.9mph /  14.3km/h 16.0mph /  25.7km/h 30% 0.00in /  0mm meteobridge W/m2
11:27 78.3 °F /  25.7 °C 44.2 °F /  6.8 °C 29.65in /  1003.9hPa NW 6.0mph /  9.7km/h 14.0mph /  22.5km/h 30% 0.00in /  0mm meteobridge W/m2
11:34 78.1 °F /  25.6 °C 44.1 °F /  6.7 °C 29.65in /  1003.9hPa Calm   20.0mph /  32.2km/h 30% 0.00in /  0mm meteobridge W/m2
11:40 78.3 °F /  25.7 °C 44.2 °F /  6.8 °C 29.65in /  1003.9hPa North 10.1mph /  16.3km/h 18.0mph /  29km/h 30% 0.00in /  0mm meteobridge W/m2
11:46 78.6 °F /  25.9 °C 44.6 °F /  7 °C 29.65in /  1003.9hPa Calm   14.0mph /  22.5km/h 30% 0.00in /  0mm meteobridge W/m2
11:52 79.0 °F /  26.1 °C 45.0 °F /  7.2 °C 29.65in /  1003.9hPa North 4.0mph /  6.4km/h 16.0mph /  25.7km/h 30% 0.00in /  0mm meteobridge W/m2
11:58 78.8 °F /  26 °C 44.8 °F /  7.1 °C 29.65in /  1003.9hPa North 10.1mph /  16.3km/h 17.0mph /  27.4km/h 30% 0.00in /  0mm meteobridge W/m2
12:04 79.2 °F /  26.2 °C 45.1 °F /  7.3 °C 29.65in /  1003.9hPa North 6.0mph /  9.7km/h 26.0mph /  41.8km/h 30% 0.00in /  0mm meteobridge W/m2
12:10 80.1 °F /  26.7 °C 45.0 °F /  7.2 °C 29.64in /  1003.6hPa NNE 2.0mph /  3.2km/h 10.0mph /  16.1km/h 29% 0.00in /  0mm meteobridge W/m2
12:22 80.6 °F /  27 °C 45.3 °F /  7.4 °C 29.65in /  1003.9hPa NNW 16.1mph /  25.9km/h 16.1mph /  25.9km/h 29% 0.00in /  0mm meteobridge W/m2
12:28 80.4 °F /  26.9 °C 46.2 °F /  7.9 °C 29.65in /  1003.9hPa NNW 8.9mph /  14.3km/h 15.0mph /  24.1km/h 30% 0.00in /  0mm meteobridge W/m2
12:34 81.1 °F /  27.3 °C 45.9 °F /  7.7 °C 29.64in /  1003.6hPa North 15.0mph /  24.1km/h 15.0mph /  24.1km/h 29% 0.00in /  0mm meteobridge W/m2
12:40 81.7 °F /  27.6 °C 46.4 °F /  8 °C 29.64in /  1003.6hPa NNW 16.1mph /  25.9km/h 20.0mph /  32.2km/h 29% 0.00in /  0mm meteobridge W/m2
12:46 82.4 °F /  28 °C 46.9 °F /  8.3 °C 29.64in /  1003.6hPa North 13.0mph /  20.9km/h 23.0mph /  37km/h 29% 0.00in /  0mm meteobridge W/m2
12:52 82.4 °F /  28 °C 46.0 °F /  7.8 °C 29.64in /  1003.6hPa WNW 8.9mph /  14.3km/h 9.0mph /  14.5km/h 28% 0.00in /  0mm meteobridge W/m2
12:59 83.1 °F /  28.4 °C 46.6 °F /  8.1 °C 29.64in /  1003.6hPa NNW 13.0mph /  20.9km/h 18.0mph /  29km/h 28% 0.00in /  0mm meteobridge W/m2
13:05 83.1 °F /  28.4 °C 46.6 °F /  8.1 °C 29.64in /  1003.6hPa ENE 12.1mph /  19.5km/h 16.0mph /  25.7km/h 28% 0.00in /  0mm meteobridge W/m2
13:15 83.8 °F /  28.8 °C 47.3 °F /  8.5 °C 29.64in /  1003.6hPa NNW 2.9mph /  4.7km/h 7.0mph /  11.3km/h 28% 0.00in /  0mm meteobridge W/m2
13:21 83.1 °F /  28.4 °C 46.6 °F /  8.1 °C 29.64in /  1003.6hPa NNW 13.0mph /  20.9km/h 17.0mph /  27.4km/h 28% 0.00in /  0mm meteobridge W/m2
13:27 82.8 °F /  28.2 °C 46.4 °F /  8 °C 29.64in /  1003.6hPa NNE 4.0mph /  6.4km/h 13.0mph /  20.9km/h 28% 0.00in /  0mm meteobridge W/m2
13:33 82.4 °F /  28 °C 46.0 °F /  7.8 °C 29.64in /  1003.6hPa North 11.0mph /  17.7km/h 19.0mph /  30.6km/h 28% 0.00in /  0mm meteobridge W/m2
13:39 81.7 °F /  27.6 °C 46.4 °F /  8 °C 29.64in /  1003.6hPa NE 6.0mph /  9.7km/h 16.0mph /  25.7km/h 29% 0.00in /  0mm meteobridge W/m2
13:46 81.7 °F /  27.6 °C 46.4 °F /  8 °C 29.64in /  1003.6hPa North 6.0mph /  9.7km/h 13.0mph /  20.9km/h 29% 0.00in /  0mm meteobridge W/m2
13:52 81.0 °F /  27.2 °C 45.7 °F /  7.6 °C 29.64in /  1003.6hPa NNE 4.0mph /  6.4km/h 16.0mph /  25.7km/h 29% 0.00in /  0mm meteobridge W/m2
13:58 80.8 °F /  27.1 °C 46.4 °F /  8 °C 29.64in /  1003.6hPa NW 4.9mph /  7.9km/h 11.0mph /  17.7km/h 30% 0.00in /  0mm meteobridge W/m2
14:08 81.0 °F /  27.2 °C 45.7 °F /  7.6 °C 29.64in /  1003.6hPa NNW 6.0mph /  9.7km/h 15.0mph /  24.1km/h 29% 0.00in /  0mm meteobridge W/m2
14:14 81.1 °F /  27.3 °C 45.9 °F /  7.7 °C 29.63in /  1003.3hPa NNE 11.0mph /  17.7km/h 14.0mph /  22.5km/h 29% 0.00in /  0mm meteobridge W/m2
14:20 81.1 °F /  27.3 °C 45.9 °F /  7.7 °C 29.64in /  1003.6hPa North 10.1mph /  16.3km/h 13.0mph /  20.9km/h 29% 0.00in /  0mm meteobridge W/m2
14:31 80.8 °F /  27.1 °C 45.5 °F /  7.5 °C 29.63in /  1003.3hPa NNW 8.9mph /  14.3km/h 13.0mph /  20.9km/h 29% 0.00in /  0mm meteobridge W/m2
14:37 80.8 °F /  27.1 °C 45.5 °F /  7.5 °C 29.63in /  1003.3hPa NNW 4.0mph /  6.4km/h 14.0mph /  22.5km/h 29% 0.00in /  0mm meteobridge W/m2
14:47 81.7 °F /  27.6 °C 46.4 °F /  8 °C 29.63in /  1003.3hPa NNE 4.9mph /  7.9km/h 8.0mph /  12.9km/h 29% 0.00in /  0mm meteobridge W/m2
14:53 81.9 °F /  27.7 °C 46.4 °F /  8 °C 29.62in /  1002.9hPa NNE 4.0mph /  6.4km/h 6.0mph /  9.7km/h 29% 0.00in /  0mm meteobridge W/m2
15:01 83.8 °F /  28.8 °C 47.3 °F /  8.5 °C 29.62in /  1002.9hPa Calm   6.0mph /  9.7km/h 28% 0.00in /  0mm meteobridge W/m2
15:07 84.4 °F /  29.1 °C 46.8 °F /  8.2 °C 29.62in /  1002.9hPa NNW 4.9mph /  7.9km/h 6.0mph /  9.7km/h 27% 0.00in /  0mm meteobridge W/m2
15:14 84.9 °F /  29.4 °C 47.1 °F /  8.4 °C 29.61in /  1002.6hPa WSW 0.9mph /  1.4km/h 3.0mph /  4.8km/h 27% 0.00in /  0mm meteobridge W/m2
15:20 84.4 °F /  29.1 °C 46.8 °F /  8.2 °C 29.61in /  1002.6hPa North 2.9mph /  4.7km/h 6.0mph /  9.7km/h 27% 0.00in /  0mm meteobridge W/m2
15:26 85.5 °F /  29.7 °C 46.6 °F /  8.1 °C 29.60in /  1002.3hPa NNE 6.0mph /  9.7km/h 8.0mph /  12.9km/h 26% 0.00in /  0mm meteobridge W/m2
15:34 85.8 °F /  29.9 °C 48.0 °F /  8.9 °C 29.59in /  1001.9hPa SSE 0.9mph /  1.4km/h 6.0mph /  9.7km/h 27% 0.00in /  0mm meteobridge W/m2
15:40 86.7 °F /  30.4 °C 47.7 °F /  8.7 °C 29.59in /  1001.9hPa South 4.9mph /  7.9km/h 6.0mph /  9.7km/h 26% 0.00in /  0mm meteobridge W/m2
15:46 86.9 °F /  30.5 °C 47.8 °F /  8.8 °C 29.59in /  1001.9hPa ESE 2.0mph /  3.2km/h 7.0mph /  11.3km/h 26% 0.00in /  0mm meteobridge W/m2
15:59 87.8 °F /  31 °C 47.7 °F /  8.7 °C 29.58in /  1001.6hPa Calm   10.0mph /  16.1km/h 25% 0.00in /  0mm meteobridge W/m2
16:05 88.2 °F /  31.2 °C 47.8 °F /  8.8 °C 29.57in /  1001.2hPa SSE 10.1mph /  16.3km/h 12.0mph /  19.3km/h 25% 0.00in /  0mm meteobridge W/m2
16:15 88.2 °F /  31.2 °C 46.8 °F /  8.2 °C 29.57in /  1001.2hPa Calm   5.0mph /  8km/h 24% 0.00in /  0mm meteobridge W/m2
16:21 88.0 °F /  31.1 °C 46.6 °F /  8.1 °C 29.56in /  1000.9hPa South 6.9mph /  11.1km/h 10.0mph /  16.1km/h 24% 0.00in /  0mm meteobridge W/m2
16:27 87.3 °F /  30.7 °C 47.1 °F /  8.4 °C 29.56in /  1000.9hPa SSE 4.0mph /  6.4km/h 12.0mph /  19.3km/h 25% 0.00in /  0mm meteobridge W/m2
16:38 87.3 °F /  30.7 °C 47.1 °F /  8.4 °C 29.56in /  1000.9hPa NNE 4.9mph /  7.9km/h 7.0mph /  11.3km/h 25% 0.00in /  0mm meteobridge W/m2
16:44 87.4 °F /  30.8 °C 47.3 °F /  8.5 °C 29.55in /  1000.6hPa ENE 4.0mph /  6.4km/h 5.0mph /  8km/h 25% 0.00in /  0mm meteobridge W/m2
16:50 87.8 °F /  31 °C 46.6 °F /  8.1 °C 29.55in /  1000.6hPa SSE 6.0mph /  9.7km/h 6.0mph /  9.7km/h 24% 0.00in /  0mm meteobridge W/m2
16:56 87.4 °F /  30.8 °C 46.2 °F /  7.9 °C 29.55in /  1000.6hPa SSW 2.0mph /  3.2km/h 10.0mph /  16.1km/h 24% 0.00in /  0mm meteobridge W/m2
17:02 87.6 °F /  30.9 °C 46.4 °F /  8 °C 29.55in /  1000.6hPa NNE 4.0mph /  6.4km/h 11.0mph /  17.7km/h 24% 0.00in /  0mm meteobridge W/m2
17:08 86.5 °F /  30.3 °C 46.6 °F /  8.1 °C 29.55in /  1000.6hPa NNE 11.0mph /  17.7km/h 20.0mph /  32.2km/h 25% 0.00in /  0mm meteobridge W/m2
17:14 86.5 °F /  30.3 °C 46.6 °F /  8.1 °C 29.55in /  1000.6hPa NNW 12.1mph /  19.5km/h 18.0mph /  29km/h 25% 0.00in /  0mm meteobridge W/m2
17:20 86.2 °F /  30.1 °C 46.2 °F /  7.9 °C 29.55in /  1000.6hPa NNW 6.0mph /  9.7km/h 14.0mph /  22.5km/h 25% 0.00in /  0mm meteobridge W/m2
17:26 86.2 °F /  30.1 °C 46.2 °F /  7.9 °C 29.55in /  1000.6hPa NW 4.0mph /  6.4km/h 16.0mph /  25.7km/h 25% 0.00in /  0mm meteobridge W/m2
17:39 87.6 °F /  30.9 °C 46.4 °F /  8 °C 29.55in /  1000.6hPa South 6.0mph /  9.7km/h 9.0mph /  14.5km/h 24% 0.00in /  0mm meteobridge W/m2
17:51 87.3 °F /  30.7 °C 47.1 °F /  8.4 °C 29.54in /  1000.2hPa North 10.1mph /  16.3km/h 17.0mph /  27.4km/h 25% 0.00in /  0mm meteobridge W/m2
17:57 86.4 °F /  30.2 °C 46.4 °F /  8 °C 29.55in /  1000.6hPa North 0.9mph /  1.4km/h 9.0mph /  14.5km/h 25% 0.00in /  0mm meteobridge W/m2
18:15 84.7 °F /  29.3 °C 46.0 °F /  7.8 °C 29.55in /  1000.6hPa NNE 4.0mph /  6.4km/h 14.0mph /  22.5km/h 26% 0.00in /  0mm meteobridge W/m2
18:23 85.5 °F /  29.7 °C 45.7 °F /  7.6 °C 29.55in /  1000.6hPa NNE 11.0mph /  17.7km/h 14.0mph /  22.5km/h 25% 0.00in /  0mm meteobridge W/m2
18:29 84.6 °F /  29.2 °C 45.9 °F /  7.7 °C 29.55in /  1000.6hPa NNW 2.9mph /  4.7km/h 11.0mph /  17.7km/h 26% 0.00in /  0mm meteobridge W/m2
18:41 84.9 °F /  29.4 °C 46.2 °F /  7.9 °C 29.55in /  1000.6hPa West 4.9mph /  7.9km/h 11.0mph /  17.7km/h 26% 0.00in /  0mm meteobridge W/m2
18:47 84.7 °F /  29.3 °C 46.0 °F /  7.8 °C 29.56in /  1000.9hPa North 11.0mph /  17.7km/h 11.0mph /  17.7km/h 26% 0.00in /  0mm meteobridge W/m2
19:08 83.1 °F /  28.4 °C 45.7 °F /  7.6 °C 29.57in /  1001.2hPa North 8.1mph /  13km/h 11.0mph /  17.7km/h 27% 0.00in /  0mm meteobridge W/m2
19:14 83.1 °F /  28.4 °C 45.7 °F /  7.6 °C 29.57in /  1001.2hPa West 6.9mph /  11.1km/h 17.0mph /  27.4km/h 27% 0.00in /  0mm meteobridge W/m2
19:20 82.6 °F /  28.1 °C 45.1 °F /  7.3 °C 29.58in /  1001.6hPa North 11.0mph /  17.7km/h 16.0mph /  25.7km/h 27% 0.00in /  0mm meteobridge W/m2
19:26 82.6 °F /  28.1 °C 45.1 °F /  7.3 °C 29.58in /  1001.6hPa North 2.9mph /  4.7km/h 11.0mph /  17.7km/h 27% 0.00in /  0mm meteobridge W/m2
19:32 82.4 °F /  28 °C 45.1 °F /  7.3 °C 29.59in /  1001.9hPa North 4.0mph /  6.4km/h 4.0mph /  6.4km/h 27% 0.00in /  0mm meteobridge W/m2
19:40 82.4 °F /  28 °C 45.1 °F /  7.3 °C 29.60in /  1002.3hPa North 4.0mph /  6.4km/h -999.0mph /  -1607.7km/h 27% 0.00in /  0mm meteobridge W/m2
19:49 82.4 °F /  28 °C 45.1 °F /  7.3 °C 29.60in /  1002.3hPa North -999.9mph /  -1609.1km/h -999.0mph /  -1607.7km/h 27% 0.00in /  0mm meteobridge W/m2
Regenstein, Windhoek, Namibia
Compliments of Weather Underground - 2.5 mb